createdAt,value
2023-05-22T00:00:13.499Z,19.00
2023-05-22T00:02:43.645Z,18.90
2023-05-22T00:05:13.264Z,18.70
2023-05-22T00:07:43.523Z,18.60
2023-05-22T00:10:13.616Z,18.50
2023-05-22T00:12:42.023Z,18.40
2023-05-22T00:15:11.597Z,18.30
2023-05-22T00:17:40.334Z,18.30
2023-05-22T00:20:11.247Z,18.30
2023-05-22T00:22:40.081Z,18.30
2023-05-22T00:25:09.822Z,18.30
2023-05-22T00:27:39.722Z,18.30
2023-05-22T00:30:10.419Z,18.20
2023-05-22T00:32:39.209Z,18.20
2023-05-22T00:35:09.003Z,18.20
2023-05-22T00:37:38.060Z,18.20
2023-05-22T00:40:08.583Z,18.20
2023-05-22T00:42:37.257Z,18.10
2023-05-22T00:45:09.142Z,18.10
2023-05-22T00:47:38.127Z,18.10
2023-05-22T00:50:08.070Z,18.00
2023-05-22T00:52:38.824Z,17.90
2023-05-22T00:55:09.574Z,17.90
2023-05-22T00:57:42.233Z,17.90
2023-05-22T01:00:15.208Z,17.90
2023-05-22T01:02:44.456Z,17.90
2023-05-22T01:05:13.556Z,17.80
2023-05-22T01:07:42.299Z,17.80
2023-05-22T01:10:11.502Z,17.80
2023-05-22T01:12:48.214Z,17.70
2023-05-22T01:15:26.853Z,17.70
2023-05-22T01:18:07.845Z,17.60
2023-05-22T01:20:41.925Z,17.60
2023-05-22T01:23:46.824Z,17.60
2023-05-22T01:26:45.369Z,17.60
2023-05-22T01:29:29.530Z,17.50
2023-05-22T01:32:00.770Z,17.50
2023-05-22T01:34:32.225Z,17.50
2023-05-22T01:37:01.813Z,17.40
2023-05-22T01:39:31.263Z,17.30
2023-05-22T01:42:00.392Z,17.30
2023-05-22T01:44:29.095Z,17.30
2023-05-22T01:47:00.632Z,17.20
2023-05-22T01:49:29.202Z,17.20
2023-05-22T01:52:04.793Z,17.20
2023-05-22T01:54:42.332Z,17.20
2023-05-22T01:57:17.085Z,17.20
2023-05-22T01:59:49.858Z,17.20
2023-05-22T02:02:22.046Z,17.20
2023-05-22T02:04:54.348Z,17.20
2023-05-22T02:07:26.074Z,17.20
2023-05-22T02:09:57.075Z,17.20
2023-05-22T02:12:26.083Z,17.10
2023-05-22T02:14:55.181Z,17.10
2023-05-22T02:17:26.240Z,17.10
2023-05-22T02:19:54.789Z,17.10
2023-05-22T02:22:23.114Z,17.00
2023-05-22T02:24:51.578Z,17.00
2023-05-22T02:27:19.866Z,17.00
2023-05-22T02:29:48.400Z,17.00
2023-05-22T02:32:16.685Z,17.00
2023-05-22T02:34:46.522Z,17.00
2023-05-22T02:37:15.923Z,17.00
2023-05-22T02:39:44.258Z,17.00
2023-05-22T02:42:12.582Z,17.00
2023-05-22T02:44:41.084Z,17.00
2023-05-22T02:47:09.580Z,17.00
2023-05-22T02:49:38.154Z,17.00
2023-05-22T02:52:08.950Z,17.00
2023-05-22T02:54:37.414Z,17.00
2023-05-22T02:57:06.157Z,17.00
2023-05-22T02:59:37.769Z,17.00
2023-05-22T03:02:07.868Z,17.00
2023-05-22T03:04:38.590Z,16.90
2023-05-22T03:07:12.546Z,16.90
2023-05-22T03:09:41.030Z,16.90
2023-05-22T03:12:10.444Z,16.90
2023-05-22T03:14:38.740Z,16.90
2023-05-22T03:17:07.295Z,16.90
2023-05-22T03:19:35.734Z,16.90
2023-05-22T03:22:04.079Z,16.90
2023-05-22T03:24:33.774Z,16.90
2023-05-22T03:27:02.046Z,16.90
2023-05-22T03:29:30.511Z,16.90
2023-05-22T03:31:59.953Z,16.90
2023-05-22T03:34:30.119Z,16.90
2023-05-22T03:36:58.502Z,16.90
2023-05-22T03:39:26.916Z,16.90
2023-05-22T03:41:56.713Z,16.90
2023-05-22T03:44:25.032Z,16.90
2023-05-22T03:46:53.490Z,16.90
2023-05-22T03:49:21.925Z,16.90
2023-05-22T03:51:50.231Z,16.80
2023-05-22T03:54:18.523Z,16.80
2023-05-22T03:56:46.876Z,16.80
2023-05-22T03:59:16.592Z,16.80
2023-05-22T04:01:46.696Z,16.80
2023-05-22T04:04:16.601Z,16.80
2023-05-22T04:06:45.246Z,16.80
2023-05-22T04:09:14.353Z,16.80
2023-05-22T04:11:42.767Z,16.80
2023-05-22T04:14:12.831Z,16.80
2023-05-22T04:16:42.513Z,16.80
2023-05-22T04:19:10.885Z,16.80
2023-05-22T04:21:39.362Z,16.90
2023-05-22T04:24:09.634Z,16.80
2023-05-22T04:26:40.401Z,16.80
2023-05-22T04:29:10.722Z,16.80
2023-05-22T04:31:39.024Z,16.80
2023-05-22T04:34:11.902Z,16.80
2023-05-22T04:36:45.235Z,16.80
2023-05-22T04:39:14.278Z,16.80
2023-05-22T04:41:43.000Z,16.80
2023-05-22T04:44:11.436Z,16.80
2023-05-22T04:46:40.726Z,16.80
2023-05-22T04:49:11.364Z,16.90
2023-05-22T04:51:39.675Z,16.90
2023-05-22T04:54:08.205Z,16.90
2023-05-22T04:56:37.400Z,16.90
2023-05-22T04:59:09.103Z,16.90
2023-05-22T05:01:38.143Z,16.90
2023-05-22T05:04:06.792Z,17.00
2023-05-22T05:06:37.915Z,17.00
2023-05-22T05:09:06.393Z,17.00
2023-05-22T05:11:34.844Z,17.00
2023-05-22T05:14:03.280Z,17.10
2023-05-22T05:16:31.695Z,17.10
2023-05-22T05:19:00.213Z,17.10
2023-05-22T05:21:28.883Z,17.10
2023-05-22T05:23:58.628Z,17.10
2023-05-22T05:26:27.408Z,17.20
2023-05-22T05:28:56.895Z,17.20
2023-05-22T05:31:25.320Z,17.20
2023-05-22T05:33:56.757Z,17.30
2023-05-22T05:36:25.813Z,17.30
2023-05-22T05:38:54.298Z,17.30
2023-05-22T05:41:24.110Z,17.30
2023-05-22T05:43:52.890Z,17.40
2023-05-22T05:46:21.247Z,17.40
2023-05-22T05:48:49.633Z,17.50
2023-05-22T05:51:17.964Z,17.50
2023-05-22T05:53:46.271Z,17.50
2023-05-22T05:56:15.120Z,17.60
2023-05-22T05:58:44.855Z,17.60
2023-05-22T06:01:13.318Z,17.70
2023-05-22T06:03:41.875Z,17.80
2023-05-22T06:06:10.770Z,18.00
2023-05-22T06:08:39.270Z,18.20
2023-05-22T06:11:07.692Z,18.40
2023-05-22T06:13:36.079Z,18.60
2023-05-22T06:16:07.079Z,18.80
2023-05-22T06:18:35.665Z,18.90
2023-05-22T06:21:03.954Z,19.00
2023-05-22T06:23:32.438Z,19.00
2023-05-22T06:26:00.844Z,19.00
2023-05-22T06:28:29.228Z,19.00
2023-05-22T06:30:58.454Z,19.00
2023-05-22T06:33:28.167Z,19.00
2023-05-22T06:35:56.691Z,19.00
2023-05-22T06:38:25.019Z,19.00
2023-05-22T06:40:53.381Z,19.10
2023-05-22T06:43:21.802Z,19.20
2023-05-22T06:45:50.237Z,19.30
2023-05-22T06:48:18.617Z,19.40
2023-05-22T06:50:48.413Z,19.60
2023-05-22T06:53:16.733Z,19.70
2023-05-22T06:55:45.280Z,19.80
2023-05-22T06:58:13.774Z,19.80
2023-05-22T07:00:42.307Z,20.00
2023-05-22T07:03:12.099Z,20.10
2023-05-22T07:05:40.624Z,20.20
2023-05-22T07:08:10.462Z,20.40
2023-05-22T07:10:38.973Z,20.60
2023-05-22T07:13:07.721Z,20.70
2023-05-22T07:15:36.106Z,20.80
2023-05-22T07:18:04.563Z,21.00
2023-05-22T07:20:32.931Z,21.10
2023-05-22T07:23:01.248Z,21.20
2023-05-22T07:25:30.948Z,21.30
2023-05-22T07:27:59.570Z,21.40
2023-05-22T07:30:27.970Z,21.50
2023-05-22T07:32:56.411Z,21.50
2023-05-22T07:35:24.842Z,21.60
2023-05-22T07:37:53.155Z,21.70
2023-05-22T07:40:21.571Z,21.90
2023-05-22T07:42:51.259Z,21.90
2023-05-22T07:45:19.661Z,21.90
2023-05-22T07:47:48.139Z,21.80
2023-05-22T07:50:19.257Z,21.90
2023-05-22T07:52:47.630Z,21.90
2023-05-22T07:55:16.252Z,22.00
2023-05-22T07:57:44.737Z,22.10
2023-05-22T08:00:17.069Z,22.20
2023-05-22T08:02:45.934Z,22.20
2023-05-22T08:05:14.392Z,22.30
2023-05-22T08:07:42.796Z,22.20
2023-05-22T08:10:16.739Z,22.20
2023-05-22T08:12:45.443Z,22.20
2023-05-22T08:15:15.170Z,22.20
2023-05-22T08:17:43.751Z,22.40
2023-05-22T08:20:13.239Z,22.70
2023-05-22T08:22:41.908Z,22.90
2023-05-22T08:25:11.112Z,23.20
2023-05-22T08:27:39.448Z,23.70
2023-05-22T08:30:09.080Z,23.90
2023-05-22T08:32:39.046Z,24.10
2023-05-22T08:35:08.329Z,24.40
2023-05-22T08:37:37.225Z,24.50
2023-05-22T08:40:07.258Z,24.90
2023-05-22T08:42:35.675Z,25.40
2023-05-22T08:45:04.559Z,25.80
2023-05-22T08:47:34.858Z,25.90
2023-05-22T08:50:05.229Z,25.60
2023-05-22T08:52:41.557Z,25.40
2023-05-22T08:55:10.847Z,25.60
2023-05-22T08:57:39.442Z,25.60
2023-05-22T09:00:09.028Z,25.30
2023-05-22T09:02:39.193Z,25.30
2023-05-22T09:05:10.548Z,25.60
2023-05-22T09:07:40.817Z,25.80
2023-05-22T09:10:09.707Z,26.30
2023-05-22T09:12:38.121Z,26.80
2023-05-22T09:15:11.121Z,27.40
2023-05-22T09:17:41.774Z,27.60
2023-05-22T09:20:15.809Z,27.80
2023-05-22T09:22:44.233Z,28.40
2023-05-22T09:25:19.344Z,28.60
2023-05-22T09:27:47.693Z,28.80
2023-05-22T09:30:18.623Z,28.40
2023-05-22T09:32:47.813Z,28.90
2023-05-22T09:35:19.730Z,29.20
2023-05-22T09:37:51.080Z,29.60
2023-05-22T09:40:19.296Z,29.80
2023-05-22T09:42:47.570Z,29.70
2023-05-22T09:45:15.944Z,28.90
2023-05-22T09:47:49.661Z,29.30
2023-05-22T09:50:19.485Z,29.70
2023-05-22T09:52:50.979Z,30.00
2023-05-22T09:55:22.878Z,30.10
2023-05-22T09:57:53.608Z,30.30
2023-05-22T10:00:24.271Z,30.40
2023-05-22T10:03:03.399Z,30.90
2023-05-22T10:05:34.096Z,30.90
2023-05-22T10:08:15.308Z,31.30
2023-05-22T10:10:44.999Z,31.60
2023-05-22T10:13:13.893Z,31.80
2023-05-22T10:15:42.931Z,31.90
2023-05-22T10:18:12.858Z,31.90
2023-05-22T10:20:42.954Z,31.80
2023-05-22T10:23:11.898Z,31.60
2023-05-22T10:25:40.230Z,31.70
2023-05-22T10:28:10.105Z,31.90
2023-05-22T10:30:48.820Z,31.90
2023-05-22T10:33:21.877Z,32.00
2023-05-22T10:35:54.170Z,32.10
2023-05-22T10:38:58.270Z,32.40
2023-05-22T10:41:27.701Z,32.50
2023-05-22T10:43:58.342Z,32.20
2023-05-22T10:46:26.864Z,32.20
2023-05-22T10:48:56.462Z,32.50
2023-05-22T10:51:26.542Z,32.50
2023-05-22T10:53:59.717Z,32.60
2023-05-22T10:56:35.426Z,32.60
2023-05-22T10:59:07.377Z,32.40
2023-05-22T11:01:38.346Z,32.30
2023-05-22T11:04:13.471Z,32.00
2023-05-22T11:06:46.532Z,31.40
2023-05-22T11:09:31.601Z,31.50
2023-05-22T11:12:17.621Z,31.40
2023-05-22T11:14:51.270Z,31.40
2023-05-22T11:17:22.537Z,31.30
2023-05-22T11:19:59.957Z,31.40
2023-05-22T11:22:34.298Z,31.40
2023-05-22T11:25:06.745Z,31.60
2023-05-22T11:27:36.573Z,31.70
2023-05-22T11:30:06.368Z,31.60
2023-05-22T11:32:37.429Z,31.50
2023-05-22T11:35:08.302Z,30.80
2023-05-22T11:37:41.839Z,29.80
2023-05-22T11:40:11.698Z,29.70
2023-05-22T11:42:40.159Z,30.10
2023-05-22T11:45:10.106Z,30.60
2023-05-22T11:47:38.743Z,30.40
2023-05-22T11:50:10.594Z,30.70
2023-05-22T11:52:42.313Z,30.90
2023-05-22T11:55:11.895Z,30.80
2023-05-22T11:57:40.265Z,30.30
2023-05-22T12:00:10.947Z,30.70
2023-05-22T12:02:39.630Z,30.10
2023-05-22T12:05:10.285Z,30.30
2023-05-22T12:07:38.876Z,30.20
2023-05-22T12:10:09.076Z,30.60
2023-05-22T12:12:38.092Z,31.00
2023-05-22T12:15:10.170Z,31.20
2023-05-22T12:17:39.061Z,31.10
2023-05-22T12:20:08.342Z,30.50
2023-05-22T12:22:43.014Z,30.80
2023-05-22T12:25:17.643Z,31.20
2023-05-22T12:27:46.582Z,31.40
2023-05-22T12:30:16.080Z,31.60
2023-05-22T12:32:49.927Z,31.20
2023-05-22T12:35:18.364Z,30.90
2023-05-22T12:37:50.744Z,30.90
2023-05-22T12:40:20.518Z,30.90
2023-05-22T12:42:49.603Z,31.00
2023-05-22T12:45:18.860Z,31.30
2023-05-22T12:47:47.371Z,31.10
2023-05-22T12:50:15.797Z,30.60
2023-05-22T12:52:44.235Z,31.10
2023-05-22T12:55:13.242Z,31.40
2023-05-22T12:57:42.859Z,31.70
2023-05-22T13:00:12.386Z,31.90
2023-05-22T13:02:40.871Z,32.20
2023-05-22T13:05:09.665Z,32.10
2023-05-22T13:07:38.487Z,32.20
2023-05-22T13:10:07.700Z,32.40
2023-05-22T13:12:36.058Z,32.50
2023-05-22T13:15:06.770Z,32.40
2023-05-22T13:17:35.224Z,32.50
2023-05-22T13:20:04.478Z,31.80
2023-05-22T13:22:33.027Z,31.90
2023-05-22T13:25:01.279Z,32.10
2023-05-22T13:27:31.371Z,32.30
2023-05-22T13:30:01.821Z,32.40
2023-05-22T13:32:32.049Z,32.20
2023-05-22T13:35:00.464Z,32.30
2023-05-22T13:37:28.844Z,31.10
2023-05-22T13:39:57.130Z,31.40
2023-05-22T13:42:25.600Z,31.60
2023-05-22T13:44:53.811Z,31.60
2023-05-22T13:47:23.095Z,31.90
2023-05-22T13:49:56.140Z,31.80
2023-05-22T13:52:24.834Z,31.80
2023-05-22T13:54:53.101Z,31.90
2023-05-22T13:57:21.400Z,32.20
2023-05-22T13:59:49.935Z,32.20
2023-05-22T14:02:19.794Z,32.40
2023-05-22T14:04:48.697Z,32.50
2023-05-22T14:07:18.763Z,32.60
2023-05-22T14:09:47.218Z,32.70
2023-05-22T14:12:15.592Z,32.20
2023-05-22T14:14:43.913Z,32.30
2023-05-22T14:17:13.255Z,32.30
2023-05-22T14:19:41.609Z,32.40
2023-05-22T14:22:10.128Z,32.30
2023-05-22T14:24:39.748Z,32.20
2023-05-22T14:27:08.139Z,31.90
2023-05-22T14:29:36.451Z,31.50
2023-05-22T14:32:06.356Z,31.00
2023-05-22T14:34:34.698Z,29.80
2023-05-22T14:37:03.526Z,30.20
2023-05-22T14:39:31.785Z,30.60
2023-05-22T14:42:01.459Z,30.70
2023-05-22T14:44:29.674Z,30.10
2023-05-22T14:46:57.966Z,30.10
2023-05-22T14:49:26.403Z,29.60
2023-05-22T14:51:54.712Z,28.90
2023-05-22T14:54:23.899Z,28.20
2023-05-22T14:56:52.164Z,27.20
2023-05-22T14:59:21.933Z,26.40
2023-05-22T15:01:52.205Z,25.30
2023-05-22T15:04:26.444Z,25.00
2023-05-22T15:06:54.793Z,24.90
2023-05-22T15:09:23.133Z,24.90
2023-05-22T15:11:54.241Z,25.00
2023-05-22T15:14:23.936Z,25.10
2023-05-22T15:16:52.339Z,24.90
2023-05-22T15:19:20.694Z,24.90
2023-05-22T15:21:49.015Z,24.90
2023-05-22T15:24:17.436Z,24.40
2023-05-22T15:26:45.732Z,24.00
2023-05-22T15:29:14.101Z,23.80
2023-05-22T15:31:43.804Z,23.60
2023-05-22T15:34:12.102Z,23.60
2023-05-22T15:36:41.192Z,23.70
2023-05-22T15:39:09.586Z,23.70
2023-05-22T15:41:37.960Z,23.90
2023-05-22T15:44:06.344Z,23.60
2023-05-22T15:46:34.986Z,23.50
2023-05-22T15:49:05.261Z,23.50
2023-05-22T15:51:33.819Z,23.10
2023-05-22T15:54:02.026Z,23.00
2023-05-22T15:56:30.270Z,22.80
2023-05-22T15:58:58.524Z,22.80
2023-05-22T16:01:27.780Z,22.80
2023-05-22T16:03:56.313Z,22.80
2023-05-22T16:06:27.122Z,22.80
2023-05-22T16:08:55.607Z,22.70
2023-05-22T16:11:24.028Z,22.60
2023-05-22T16:13:52.673Z,22.30
2023-05-22T16:16:21.111Z,22.10
2023-05-22T16:18:49.654Z,21.70
2023-05-22T16:21:18.151Z,21.50
2023-05-22T16:23:47.812Z,21.40
2023-05-22T16:26:16.208Z,21.10
2023-05-22T16:28:44.730Z,20.80
2023-05-22T16:31:17.619Z,20.50
2023-05-22T16:33:47.645Z,20.00
2023-05-22T16:36:16.021Z,19.40
2023-05-22T16:38:44.330Z,18.80
2023-05-22T16:41:14.477Z,18.30
2023-05-22T16:43:42.893Z,18.10
2023-05-22T16:46:11.523Z,18.00
2023-05-22T16:48:40.084Z,17.90
2023-05-22T16:51:08.636Z,17.90
2023-05-22T16:53:38.330Z,17.90
2023-05-22T16:56:07.455Z,17.80
2023-05-22T16:58:37.317Z,17.80
2023-05-22T17:01:06.729Z,17.70
2023-05-22T17:03:35.240Z,17.60
2023-05-22T17:06:04.194Z,17.60
2023-05-22T17:08:32.625Z,17.50
2023-05-22T17:11:00.997Z,17.50
2023-05-22T17:13:29.335Z,17.40
2023-05-22T17:15:59.481Z,17.40
2023-05-22T17:18:28.211Z,17.50
2023-05-22T17:20:56.951Z,17.50
2023-05-22T17:23:25.340Z,17.50
2023-05-22T17:25:55.371Z,17.50
2023-05-22T17:28:23.843Z,17.50
2023-05-22T17:30:52.176Z,17.50
2023-05-22T17:33:22.179Z,17.50
2023-05-22T17:35:51.022Z,17.50
2023-05-22T17:38:19.408Z,17.50
2023-05-22T17:40:48.012Z,17.50
2023-05-22T17:43:18.999Z,17.50
2023-05-22T17:45:50.256Z,17.40
2023-05-22T17:48:23.630Z,17.40
2023-05-22T17:50:54.043Z,17.40
2023-05-22T17:53:22.687Z,17.40
2023-05-22T17:55:52.829Z,17.40
2023-05-22T17:58:21.896Z,17.40
2023-05-22T18:00:50.272Z,17.50
2023-05-22T18:03:20.544Z,17.50
2023-05-22T18:05:49.666Z,17.50
2023-05-22T18:08:21.408Z,17.60
2023-05-22T18:10:50.575Z,17.60
2023-05-22T18:13:19.993Z,17.50
2023-05-22T18:15:50.252Z,17.50
2023-05-22T18:18:18.748Z,17.40
2023-05-22T18:20:47.760Z,17.30
2023-05-22T18:23:16.210Z,17.30
2023-05-22T18:25:46.078Z,17.20
2023-05-22T18:28:14.550Z,17.20
2023-05-22T18:30:44.744Z,17.10
2023-05-22T18:33:13.268Z,17.10
2023-05-22T18:35:41.914Z,17.00
2023-05-22T18:38:10.563Z,17.00
2023-05-22T18:40:39.374Z,17.00
2023-05-22T18:43:09.487Z,17.00
2023-05-22T18:45:37.881Z,17.00
2023-05-22T18:48:06.478Z,17.00
2023-05-22T18:50:35.299Z,17.00
2023-05-22T18:53:03.837Z,17.00
2023-05-22T18:55:32.325Z,17.00
2023-05-22T18:58:00.994Z,17.00
2023-05-22T19:00:31.027Z,17.00
2023-05-22T19:02:59.749Z,16.90
2023-05-22T19:05:28.158Z,16.90
2023-05-22T19:07:56.514Z,16.90
2023-05-22T19:11:56.911Z,16.90
2023-05-22T19:14:25.412Z,16.90
2023-05-22T19:16:53.883Z,16.90
2023-05-22T19:19:22.382Z,16.90
2023-05-22T19:21:50.796Z,16.90
2023-05-22T19:24:19.165Z,16.80
2023-05-22T19:26:47.654Z,16.80
2023-05-22T19:29:17.503Z,16.90
2023-05-22T19:31:46.078Z,16.90
2023-05-22T19:34:14.511Z,16.90
2023-05-22T19:36:42.999Z,17.00
2023-05-22T19:39:11.463Z,17.00
2023-05-22T19:41:39.838Z,17.00
2023-05-22T19:44:08.854Z,17.00
2023-05-22T19:46:38.694Z,17.00
2023-05-22T19:49:07.210Z,17.00
2023-05-22T19:51:36.503Z,17.00
2023-05-22T19:54:05.233Z,17.00
2023-05-22T19:56:35.091Z,17.00
2023-05-22T19:59:03.563Z,17.00
2023-05-22T20:01:32.066Z,17.00
2023-05-22T20:04:01.965Z,16.90
2023-05-22T20:06:33.206Z,16.90
2023-05-22T20:09:03.191Z,16.90
2023-05-22T20:11:31.580Z,16.90
2023-05-22T20:13:59.971Z,16.90
2023-05-22T20:16:29.530Z,16.90
2023-05-22T20:18:58.218Z,16.90
2023-05-22T20:21:28.208Z,16.90
2023-05-22T20:23:56.626Z,16.90
2023-05-22T20:26:25.120Z,16.90
2023-05-22T20:28:53.679Z,16.90
2023-05-22T20:31:22.221Z,16.90
2023-05-22T20:33:50.681Z,16.90
2023-05-22T20:36:19.218Z,16.90
2023-05-22T20:38:49.043Z,16.90
2023-05-22T20:41:19.437Z,16.90
2023-05-22T20:43:48.374Z,16.90
2023-05-22T20:46:16.984Z,16.90
2023-05-22T20:48:48.195Z,16.90
2023-05-22T20:51:18.689Z,16.80
2023-05-22T20:53:48.760Z,16.80
2023-05-22T20:56:17.402Z,16.80
2023-05-22T20:58:45.916Z,16.70
2023-05-22T21:01:14.487Z,16.70
2023-05-22T21:03:43.095Z,16.70
2023-05-22T21:06:11.684Z,16.70
2023-05-22T21:08:40.108Z,16.70
2023-05-22T21:11:09.876Z,16.60
2023-05-22T21:13:38.260Z,16.60
2023-05-22T21:16:07.248Z,16.50
2023-05-22T21:18:35.750Z,16.50
2023-05-22T21:21:04.290Z,16.50
2023-05-22T21:23:32.578Z,16.40
2023-05-22T21:26:01.139Z,16.40
2023-05-22T21:28:31.058Z,16.40
2023-05-22T21:30:59.511Z,16.40
2023-05-22T21:33:27.931Z,16.40
2023-05-22T21:35:56.474Z,16.40
2023-05-22T21:38:25.108Z,16.30
2023-05-22T21:40:53.488Z,16.30
2023-05-22T21:43:21.893Z,16.30
2023-05-22T21:45:51.717Z,16.30
2023-05-22T21:48:20.167Z,16.20
2023-05-22T21:50:48.717Z,16.20
2023-05-22T21:53:17.397Z,16.20
2023-05-22T21:55:45.893Z,16.20
2023-05-22T21:58:14.741Z,16.20
2023-05-22T22:00:43.305Z,16.20
2023-05-22T22:03:13.432Z,16.20
2023-05-22T22:05:41.917Z,16.20
2023-05-22T22:08:10.350Z,16.20
2023-05-22T22:10:38.830Z,16.10
2023-05-22T22:13:07.438Z,16.00
2023-05-22T22:15:36.723Z,16.00
2023-05-22T22:18:05.447Z,15.90
2023-05-22T22:20:44.429Z,15.90
2023-05-22T22:23:13.951Z,15.80
2023-05-22T22:25:42.462Z,15.80
2023-05-22T22:28:11.548Z,15.70
2023-05-22T22:30:40.228Z,15.70
2023-05-22T22:33:08.962Z,15.60
2023-05-22T22:35:40.626Z,15.60
2023-05-22T22:38:09.334Z,15.60
2023-05-22T22:40:37.888Z,15.50
2023-05-22T22:43:06.336Z,15.50
2023-05-22T22:45:36.146Z,15.50
2023-05-22T22:48:05.830Z,15.50
2023-05-22T22:50:34.248Z,15.40
2023-05-22T22:53:03.911Z,15.40
2023-05-22T22:55:32.726Z,15.40
2023-05-22T22:58:02.028Z,15.30
2023-05-22T23:00:30.595Z,15.30
2023-05-22T23:02:59.202Z,15.30
2023-05-22T23:05:27.885Z,15.20
2023-05-22T23:07:58.476Z,15.20
2023-05-22T23:10:28.273Z,15.20
2023-05-22T23:12:57.335Z,15.10
2023-05-22T23:15:25.889Z,15.10
2023-05-22T23:17:54.582Z,15.00
2023-05-22T23:20:23.052Z,15.00
2023-05-22T23:22:51.439Z,14.90
2023-05-22T23:25:19.950Z,14.90
2023-05-22T23:27:50.000Z,14.80
2023-05-22T23:30:18.661Z,14.80
2023-05-22T23:32:47.018Z,14.70
2023-05-22T23:35:15.399Z,14.70
2023-05-22T23:37:43.900Z,14.60
2023-05-22T23:40:13.066Z,14.60
2023-05-22T23:42:41.492Z,14.50
2023-05-22T23:45:11.952Z,14.50
2023-05-22T23:47:40.754Z,14.40
2023-05-22T23:50:09.882Z,14.40
2023-05-22T23:52:38.419Z,14.40
2023-05-22T23:55:08.718Z,14.30
2023-05-22T23:57:37.160Z,14.30
